sensor_id;sensor_type;location;lat;lon;timestamp;P1;durP1;ratioP1;P2;durP2;ratioP2
31638;SDS011;18248;51.522;7.020;2024-01-30T00:00:31;15.98;;;8.40;;
31638;SDS011;18248;51.522;7.020;2024-01-30T00:03:30;15.50;;;7.65;;
31638;SDS011;18248;51.522;7.020;2024-01-30T00:06:28;12.43;;;7.63;;
31638;SDS011;18248;51.522;7.020;2024-01-30T00:09:27;12.82;;;7.75;;
31638;SDS011;18248;51.522;7.020;2024-01-30T00:12:25;14.60;;;8.15;;
31638;SDS011;18248;51.522;7.020;2024-01-30T00:15:24;14.48;;;8.70;;
31638;SDS011;18248;51.522;7.020;2024-01-30T00:18:22;15.35;;;8.07;;
31638;SDS011;18248;51.522;7.020;2024-01-30T00:21:21;15.13;;;9.05;;
31638;SDS011;18248;51.522;7.020;2024-01-30T00:24:20;17.70;;;8.43;;
31638;SDS011;18248;51.522;7.020;2024-01-30T00:27:18;14.68;;;7.50;;
31638;SDS011;18248;51.522;7.020;2024-01-30T00:30:17;12.27;;;7.22;;
31638;SDS011;18248;51.522;7.020;2024-01-30T00:33:15;14.38;;;7.65;;
31638;SDS011;18248;51.522;7.020;2024-01-30T00:36:14;12.32;;;6.50;;
31638;SDS011;18248;51.522;7.020;2024-01-30T00:39:12;12.95;;;7.45;;
31638;SDS011;18248;51.522;7.020;2024-01-30T00:42:13;13.40;;;7.70;;
31638;SDS011;18248;51.522;7.020;2024-01-30T00:45:15;11.52;;;7.15;;
31638;SDS011;18248;51.522;7.020;2024-01-30T00:48:14;17.73;;;7.28;;
31638;SDS011;18248;51.522;7.020;2024-01-30T00:51:13;13.95;;;7.35;;
31638;SDS011;18248;51.522;7.020;2024-01-30T00:54:11;12.38;;;7.15;;
31638;SDS011;18248;51.522;7.020;2024-01-30T00:57:10;13.48;;;7.22;;
31638;SDS011;18248;51.522;7.020;2024-01-30T01:00:08;12.15;;;7.25;;
31638;SDS011;18248;51.522;7.020;2024-01-30T01:03:07;11.77;;;6.78;;
31638;SDS011;18248;51.522;7.020;2024-01-30T01:06:06;13.30;;;7.20;;
31638;SDS011;18248;51.522;7.020;2024-01-30T01:09:05;12.07;;;7.13;;
31638;SDS011;18248;51.522;7.020;2024-01-30T01:12:04;12.23;;;7.35;;
31638;SDS011;18248;51.522;7.020;2024-01-30T01:15:03;13.77;;;6.82;;
31638;SDS011;18248;51.522;7.020;2024-01-30T01:18:01;11.98;;;7.07;;
31638;SDS011;18248;51.522;7.020;2024-01-30T01:21:00;11.20;;;6.55;;
31638;SDS011;18248;51.522;7.020;2024-01-30T01:23:59;15.45;;;8.25;;
31638;SDS011;18248;51.522;7.020;2024-01-30T01:26:58;10.70;;;7.40;;
31638;SDS011;18248;51.522;7.020;2024-01-30T01:29:57;11.77;;;7.60;;
31638;SDS011;18248;51.522;7.020;2024-01-30T01:32:55;13.30;;;7.07;;
31638;SDS011;18248;51.522;7.020;2024-01-30T01:35:55;10.57;;;6.70;;
31638;SDS011;18248;51.522;7.020;2024-01-30T01:38:54;12.68;;;6.82;;
31638;SDS011;18248;51.522;7.020;2024-01-30T01:41:52;13.25;;;7.22;;
31638;SDS011;18248;51.522;7.020;2024-01-30T01:44:51;17.17;;;6.97;;
31638;SDS011;18248;51.522;7.020;2024-01-30T01:47:52;10.73;;;7.05;;
31638;SDS011;18248;51.522;7.020;2024-01-30T01:50:51;12.18;;;6.90;;
31638;SDS011;18248;51.522;7.020;2024-01-30T01:53:50;15.98;;;7.70;;
31638;SDS011;18248;51.522;7.020;2024-01-30T01:56:49;14.02;;;7.20;;
31638;SDS011;18248;51.522;7.020;2024-01-30T01:59:49;11.27;;;7.40;;
31638;SDS011;18248;51.522;7.020;2024-01-30T02:02:47;14.90;;;8.25;;
31638;SDS011;18248;51.522;7.020;2024-01-30T02:05:47;14.10;;;6.93;;
31638;SDS011;18248;51.522;7.020;2024-01-30T02:08:47;11.63;;;7.30;;
31638;SDS011;18248;51.522;7.020;2024-01-30T02:11:45;11.85;;;7.10;;
31638;SDS011;18248;51.522;7.020;2024-01-30T02:14:44;11.98;;;7.53;;
31638;SDS011;18248;51.522;7.020;2024-01-30T02:17:44;11.75;;;6.97;;
31638;SDS011;18248;51.522;7.020;2024-01-30T02:20:42;12.82;;;8.25;;
31638;SDS011;18248;51.522;7.020;2024-01-30T02:23:42;12.25;;;7.20;;
31638;SDS011;18248;51.522;7.020;2024-01-30T02:26:42;12.15;;;7.22;;
31638;SDS011;18248;51.522;7.020;2024-01-30T02:29:41;9.52;;;6.82;;
31638;SDS011;18248;51.522;7.020;2024-01-30T02:32:40;16.55;;;8.85;;
31638;SDS011;18248;51.522;7.020;2024-01-30T02:35:38;12.18;;;7.53;;
31638;SDS011;18248;51.522;7.020;2024-01-30T02:38:37;11.63;;;6.75;;
31638;SDS011;18248;51.522;7.020;2024-01-30T02:41:36;12.57;;;7.28;;
31638;SDS011;18248;51.522;7.020;2024-01-30T02:44:34;12.70;;;7.68;;
31638;SDS011;18248;51.522;7.020;2024-01-30T02:47:33;12.60;;;7.28;;
31638;SDS011;18248;51.522;7.020;2024-01-30T02:50:31;10.73;;;6.82;;
31638;SDS011;18248;51.522;7.020;2024-01-30T02:53:30;12.73;;;7.82;;
31638;SDS011;18248;51.522;7.020;2024-01-30T02:56:28;11.82;;;7.00;;
31638;SDS011;18248;51.522;7.020;2024-01-30T02:59:27;13.88;;;7.43;;
31638;SDS011;18248;51.522;7.020;2024-01-30T03:02:25;10.70;;;7.20;;
31638;SDS011;18248;51.522;7.020;2024-01-30T03:05:24;16.45;;;8.13;;
31638;SDS011;18248;51.522;7.020;2024-01-30T03:08:23;9.45;;;6.07;;
31638;SDS011;18248;51.522;7.020;2024-01-30T03:11:21;10.27;;;6.22;;
31638;SDS011;18248;51.522;7.020;2024-01-30T03:14:20;11.98;;;6.47;;
31638;SDS011;18248;51.522;7.020;2024-01-30T03:17:18;11.40;;;6.57;;
31638;SDS011;18248;51.522;7.020;2024-01-30T03:20:17;14.30;;;7.30;;
31638;SDS011;18248;51.522;7.020;2024-01-30T03:23:15;10.43;;;6.68;;
31638;SDS011;18248;51.522;7.020;2024-01-30T03:26:14;14.88;;;6.72;;
31638;SDS011;18248;51.522;7.020;2024-01-30T03:29:13;12.02;;;7.10;;
31638;SDS011;18248;51.522;7.020;2024-01-30T03:32:12;11.77;;;7.47;;
31638;SDS011;18248;51.522;7.020;2024-01-30T03:35:10;11.38;;;7.07;;
31638;SDS011;18248;51.522;7.020;2024-01-30T03:38:09;15.50;;;7.72;;
31638;SDS011;18248;51.522;7.020;2024-01-30T03:41:07;13.30;;;8.10;;
31638;SDS011;18248;51.522;7.020;2024-01-30T03:44:07;12.27;;;7.13;;
31638;SDS011;18248;51.522;7.020;2024-01-30T03:47:06;15.15;;;7.88;;
31638;SDS011;18248;51.522;7.020;2024-01-30T03:50:04;18.25;;;7.50;;
31638;SDS011;18248;51.522;7.020;2024-01-30T03:53:03;13.05;;;7.20;;
31638;SDS011;18248;51.522;7.020;2024-01-30T03:56:02;8.65;;;6.10;;
31638;SDS011;18248;51.522;7.020;2024-01-30T03:59:01;11.40;;;6.82;;
31638;SDS011;18248;51.522;7.020;2024-01-30T04:02:00;14.57;;;7.68;;
31638;SDS011;18248;51.522;7.020;2024-01-30T04:04:59;16.63;;;7.10;;
31638;SDS011;18248;51.522;7.020;2024-01-30T04:07:57;11.07;;;6.50;;
31638;SDS011;18248;51.522;7.020;2024-01-30T04:10:56;12.02;;;6.85;;
31638;SDS011;18248;51.522;7.020;2024-01-30T04:13:55;10.43;;;6.78;;
31638;SDS011;18248;51.522;7.020;2024-01-30T04:16:53;10.77;;;6.90;;
31638;SDS011;18248;51.522;7.020;2024-01-30T04:19:52;10.32;;;7.13;;
31638;SDS011;18248;51.522;7.020;2024-01-30T04:22:50;10.60;;;6.93;;
31638;SDS011;18248;51.522;7.020;2024-01-30T04:25:49;11.98;;;7.57;;
31638;SDS011;18248;51.522;7.020;2024-01-30T04:28:47;15.40;;;8.73;;
31638;SDS011;18248;51.522;7.020;2024-01-30T04:31:46;13.45;;;7.47;;
31638;SDS011;18248;51.522;7.020;2024-01-30T04:34:44;10.82;;;6.97;;
31638;SDS011;18248;51.522;7.020;2024-01-30T04:37:43;12.75;;;7.35;;
31638;SDS011;18248;51.522;7.020;2024-01-30T04:40:41;14.07;;;8.07;;
31638;SDS011;18248;51.522;7.020;2024-01-30T04:43:40;13.60;;;7.45;;
31638;SDS011;18248;51.522;7.020;2024-01-30T04:46:39;13.68;;;7.35;;
31638;SDS011;18248;51.522;7.020;2024-01-30T04:49:38;13.70;;;8.05;;
31638;SDS011;18248;51.522;7.020;2024-01-30T04:52:37;11.45;;;6.43;;
31638;SDS011;18248;51.522;7.020;2024-01-30T04:55:36;13.15;;;7.15;;
31638;SDS011;18248;51.522;7.020;2024-01-30T04:58:35;13.52;;;7.82;;
31638;SDS011;18248;51.522;7.020;2024-01-30T05:01:34;15.40;;;8.20;;
31638;SDS011;18248;51.522;7.020;2024-01-30T05:04:32;15.68;;;7.82;;
31638;SDS011;18248;51.522;7.020;2024-01-30T05:07:31;17.60;;;8.27;;
31638;SDS011;18248;51.522;7.020;2024-01-30T05:10:29;14.95;;;8.15;;
31638;SDS011;18248;51.522;7.020;2024-01-30T05:13:28;19.00;;;10.10;;
31638;SDS011;18248;51.522;7.020;2024-01-30T05:16:26;16.23;;;9.68;;
31638;SDS011;18248;51.522;7.020;2024-01-30T05:19:25;20.58;;;11.88;;
31638;SDS011;18248;51.522;7.020;2024-01-30T05:22:23;17.73;;;10.18;;
31638;SDS011;18248;51.522;7.020;2024-01-30T05:25:22;18.40;;;9.50;;
31638;SDS011;18248;51.522;7.020;2024-01-30T05:28:21;20.73;;;11.73;;
31638;SDS011;18248;51.522;7.020;2024-01-30T05:31:20;27.77;;;13.30;;
31638;SDS011;18248;51.522;7.020;2024-01-30T05:34:19;34.28;;;13.45;;
31638;SDS011;18248;51.522;7.020;2024-01-30T05:37:17;41.83;;;16.02;;
31638;SDS011;18248;51.522;7.020;2024-01-30T05:40:16;25.63;;;12.13;;
31638;SDS011;18248;51.522;7.020;2024-01-30T05:43:15;25.25;;;13.35;;
31638;SDS011;18248;51.522;7.020;2024-01-30T05:46:13;23.25;;;11.95;;
31638;SDS011;18248;51.522;7.020;2024-01-30T05:49:12;26.08;;;10.98;;
31638;SDS011;18248;51.522;7.020;2024-01-30T05:52:10;22.10;;;12.20;;
31638;SDS011;18248;51.522;7.020;2024-01-30T05:55:09;22.88;;;11.38;;
31638;SDS011;18248;51.522;7.020;2024-01-30T05:58:08;21.02;;;10.30;;
31638;SDS011;18248;51.522;7.020;2024-01-30T06:01:07;20.35;;;10.25;;
31638;SDS011;18248;51.522;7.020;2024-01-30T06:04:08;25.25;;;10.32;;
31638;SDS011;18248;51.522;7.020;2024-01-30T06:07:06;23.13;;;10.07;;
31638;SDS011;18248;51.522;7.020;2024-01-30T06:10:06;23.05;;;9.57;;
31638;SDS011;18248;51.522;7.020;2024-01-30T06:13:05;21.92;;;8.82;;
31638;SDS011;18248;51.522;7.020;2024-01-30T06:16:04;18.88;;;8.55;;
31638;SDS011;18248;51.522;7.020;2024-01-30T06:19:04;13.98;;;7.68;;
31638;SDS011;18248;51.522;7.020;2024-01-30T06:22:03;13.98;;;7.32;;
31638;SDS011;18248;51.522;7.020;2024-01-30T06:25:02;14.02;;;7.82;;
31638;SDS011;18248;51.522;7.020;2024-01-30T06:28:01;15.77;;;8.25;;
31638;SDS011;18248;51.522;7.020;2024-01-30T06:31:00;16.77;;;9.30;;
31638;SDS011;18248;51.522;7.020;2024-01-30T06:33:59;16.35;;;8.18;;
31638;SDS011;18248;51.522;7.020;2024-01-30T06:36:58;14.85;;;8.27;;
31638;SDS011;18248;51.522;7.020;2024-01-30T06:39:56;16.80;;;9.20;;
31638;SDS011;18248;51.522;7.020;2024-01-30T06:42:55;17.13;;;9.18;;
31638;SDS011;18248;51.522;7.020;2024-01-30T06:45:53;18.13;;;9.48;;
31638;SDS011;18248;51.522;7.020;2024-01-30T06:48:52;14.38;;;7.70;;
31638;SDS011;18248;51.522;7.020;2024-01-30T06:51:50;15.77;;;8.73;;
31638;SDS011;18248;51.522;7.020;2024-01-30T06:54:49;18.85;;;9.00;;
31638;SDS011;18248;51.522;7.020;2024-01-30T06:57:47;16.75;;;8.88;;
31638;SDS011;18248;51.522;7.020;2024-01-30T07:00:46;16.02;;;8.85;;
31638;SDS011;18248;51.522;7.020;2024-01-30T07:03:44;20.95;;;9.02;;
31638;SDS011;18248;51.522;7.020;2024-01-30T07:06:43;16.52;;;8.25;;
31638;SDS011;18248;51.522;7.020;2024-01-30T07:09:41;14.38;;;8.52;;
31638;SDS011;18248;51.522;7.020;2024-01-30T07:12:40;13.48;;;7.95;;
31638;SDS011;18248;51.522;7.020;2024-01-30T07:15:39;15.85;;;8.27;;
31638;SDS011;18248;51.522;7.020;2024-01-30T07:18:37;15.95;;;8.98;;
31638;SDS011;18248;51.522;7.020;2024-01-30T07:21:36;16.08;;;9.52;;
31638;SDS011;18248;51.522;7.020;2024-01-30T07:24:34;15.15;;;8.00;;
31638;SDS011;18248;51.522;7.020;2024-01-30T07:27:33;20.52;;;8.30;;
31638;SDS011;18248;51.522;7.020;2024-01-30T07:30:31;12.85;;;7.10;;
31638;SDS011;18248;51.522;7.020;2024-01-30T07:33:30;11.45;;;6.93;;
31638;SDS011;18248;51.522;7.020;2024-01-30T07:36:28;20.65;;;8.10;;
31638;SDS011;18248;51.522;7.020;2024-01-30T07:39:27;16.92;;;8.05;;
31638;SDS011;18248;51.522;7.020;2024-01-30T07:42:26;13.60;;;6.70;;
31638;SDS011;18248;51.522;7.020;2024-01-30T07:45:24;15.25;;;7.10;;
31638;SDS011;18248;51.522;7.020;2024-01-30T07:48:25;13.00;;;6.40;;
31638;SDS011;18248;51.522;7.020;2024-01-30T07:51:24;13.38;;;7.05;;
31638;SDS011;18248;51.522;7.020;2024-01-30T07:54:22;16.85;;;7.18;;
31638;SDS011;18248;51.522;7.020;2024-01-30T08:01:28;10.55;;;6.60;;
31638;SDS011;18248;51.522;7.020;2024-01-30T08:04:27;12.73;;;6.38;;
31638;SDS011;18248;51.522;7.020;2024-01-30T08:07:25;12.65;;;6.35;;
31638;SDS011;18248;51.522;7.020;2024-01-30T08:10:27;11.27;;;6.57;;
31638;SDS011;18248;51.522;7.020;2024-01-30T08:13:27;12.77;;;6.43;;
31638;SDS011;18248;51.522;7.020;2024-01-30T08:16:25;9.23;;;5.55;;
31638;SDS011;18248;51.522;7.020;2024-01-30T08:19:24;14.18;;;6.68;;
31638;SDS011;18248;51.522;7.020;2024-01-30T08:22:22;13.77;;;7.45;;
31638;SDS011;18248;51.522;7.020;2024-01-30T08:25:21;12.82;;;6.85;;
31638;SDS011;18248;51.522;7.020;2024-01-30T08:28:19;11.32;;;6.72;;
31638;SDS011;18248;51.522;7.020;2024-01-30T08:31:18;15.40;;;7.13;;
31638;SDS011;18248;51.522;7.020;2024-01-30T08:34:16;12.32;;;6.22;;
31638;SDS011;18248;51.522;7.020;2024-01-30T08:37:15;16.17;;;7.13;;
31638;SDS011;18248;51.522;7.020;2024-01-30T08:40:14;13.00;;;7.00;;
31638;SDS011;18248;51.522;7.020;2024-01-30T08:43:13;12.75;;;7.00;;
31638;SDS011;18248;51.522;7.020;2024-01-30T08:46:11;14.43;;;7.63;;
31638;SDS011;18248;51.522;7.020;2024-01-30T08:49:10;23.15;;;7.72;;
31638;SDS011;18248;51.522;7.020;2024-01-30T08:52:11;16.02;;;7.07;;
31638;SDS011;18248;51.522;7.020;2024-01-30T08:55:09;14.35;;;6.90;;
31638;SDS011;18248;51.522;7.020;2024-01-30T08:58:08;14.15;;;6.78;;
31638;SDS011;18248;51.522;7.020;2024-01-30T09:01:06;12.43;;;6.80;;
31638;SDS011;18248;51.522;7.020;2024-01-30T09:04:05;13.00;;;6.25;;
31638;SDS011;18248;51.522;7.020;2024-01-30T09:07:03;14.38;;;7.15;;
31638;SDS011;18248;51.522;7.020;2024-01-30T09:10:06;14.38;;;6.03;;
31638;SDS011;18248;51.522;7.020;2024-01-30T09:13:05;12.75;;;6.65;;
31638;SDS011;18248;51.522;7.020;2024-01-30T09:16:03;12.40;;;6.68;;
31638;SDS011;18248;51.522;7.020;2024-01-30T09:19:02;12.50;;;6.13;;
31638;SDS011;18248;51.522;7.020;2024-01-30T09:22:02;16.00;;;7.15;;
31638;SDS011;18248;51.522;7.020;2024-01-30T09:25:00;15.55;;;6.07;;
31638;SDS011;18248;51.522;7.020;2024-01-30T09:27:59;11.70;;;6.70;;
31638;SDS011;18248;51.522;7.020;2024-01-30T09:30:58;15.35;;;6.53;;
31638;SDS011;18248;51.522;7.020;2024-01-30T09:33:57;17.88;;;7.15;;
31638;SDS011;18248;51.522;7.020;2024-01-30T09:36:55;13.52;;;6.40;;
31638;SDS011;18248;51.522;7.020;2024-01-30T09:39:54;10.77;;;6.38;;
31638;SDS011;18248;51.522;7.020;2024-01-30T09:42:52;9.40;;;6.13;;
31638;SDS011;18248;51.522;7.020;2024-01-30T09:45:52;10.30;;;6.07;;
31638;SDS011;18248;51.522;7.020;2024-01-30T09:48:52;10.68;;;5.93;;
31638;SDS011;18248;51.522;7.020;2024-01-30T09:51:51;16.70;;;8.00;;
31638;SDS011;18248;51.522;7.020;2024-01-30T09:54:51;11.95;;;6.00;;
31638;SDS011;18248;51.522;7.020;2024-01-30T09:57:50;11.77;;;5.97;;
31638;SDS011;18248;51.522;7.020;2024-01-30T10:00:49;14.20;;;7.18;;
31638;SDS011;18248;51.522;7.020;2024-01-30T10:03:50;8.73;;;5.35;;
31638;SDS011;18248;51.522;7.020;2024-01-30T10:06:50;16.42;;;6.35;;
31638;SDS011;18248;51.522;7.020;2024-01-30T10:09:49;11.23;;;5.97;;
31638;SDS011;18248;51.522;7.020;2024-01-30T10:12:48;12.80;;;5.63;;
31638;SDS011;18248;51.522;7.020;2024-01-30T10:15:47;11.23;;;5.47;;
31638;SDS011;18248;51.522;7.020;2024-01-30T10:18:46;12.90;;;6.10;;
31638;SDS011;18248;51.522;7.020;2024-01-30T10:21:45;13.05;;;5.70;;
31638;SDS011;18248;51.522;7.020;2024-01-30T10:24:44;16.13;;;6.00;;
31638;SDS011;18248;51.522;7.020;2024-01-30T10:27:43;12.05;;;5.50;;
31638;SDS011;18248;51.522;7.020;2024-01-30T10:30:41;10.63;;;5.63;;
31638;SDS011;18248;51.522;7.020;2024-01-30T10:33:40;13.25;;;5.72;;
31638;SDS011;18248;51.522;7.020;2024-01-30T10:36:40;8.88;;;5.13;;
31638;SDS011;18248;51.522;7.020;2024-01-30T10:39:40;10.57;;;5.25;;
31638;SDS011;18248;51.522;7.020;2024-01-30T10:42:43;12.88;;;5.40;;
31638;SDS011;18248;51.522;7.020;2024-01-30T10:45:43;10.95;;;5.25;;
31638;SDS011;18248;51.522;7.020;2024-01-30T10:48:50;10.68;;;5.15;;
31638;SDS011;18248;51.522;7.020;2024-01-30T10:51:55;11.48;;;5.10;;
31638;SDS011;18248;51.522;7.020;2024-01-30T10:54:55;12.48;;;5.72;;
31638;SDS011;18248;51.522;7.020;2024-01-30T10:57:54;11.48;;;5.63;;
31638;SDS011;18248;51.522;7.020;2024-01-30T11:00:53;14.77;;;6.28;;
31638;SDS011;18248;51.522;7.020;2024-01-30T11:03:53;13.77;;;6.03;;
31638;SDS011;18248;51.522;7.020;2024-01-30T11:06:52;11.98;;;5.90;;
31638;SDS011;18248;51.522;7.020;2024-01-30T11:09:52;10.43;;;5.53;;
31638;SDS011;18248;51.522;7.020;2024-01-30T11:13:12;12.27;;;6.10;;
31638;SDS011;18248;51.522;7.020;2024-01-30T11:16:11;16.25;;;6.35;;
31638;SDS011;18248;51.522;7.020;2024-01-30T11:19:10;16.77;;;6.13;;
31638;SDS011;18248;51.522;7.020;2024-01-30T11:22:10;12.77;;;6.05;;
31638;SDS011;18248;51.522;7.020;2024-01-30T11:25:15;18.08;;;6.90;;
31638;SDS011;18248;51.522;7.020;2024-01-30T11:28:15;15.15;;;6.78;;
31638;SDS011;18248;51.522;7.020;2024-01-30T11:31:14;15.15;;;6.78;;
31638;SDS011;18248;51.522;7.020;2024-01-30T11:34:17;15.65;;;5.88;;
31638;SDS011;18248;51.522;7.020;2024-01-30T11:37:16;19.63;;;7.25;;
31638;SDS011;18248;51.522;7.020;2024-01-30T11:40:19;21.57;;;7.30;;
31638;SDS011;18248;51.522;7.020;2024-01-30T11:43:19;12.82;;;6.72;;
31638;SDS011;18248;51.522;7.020;2024-01-30T11:46:17;19.00;;;7.63;;
31638;SDS011;18248;51.522;7.020;2024-01-30T11:49:16;20.02;;;7.45;;
31638;SDS011;18248;51.522;7.020;2024-01-30T11:52:15;19.88;;;7.30;;
31638;SDS011;18248;51.522;7.020;2024-01-30T11:55:14;20.15;;;6.95;;
31638;SDS011;18248;51.522;7.020;2024-01-30T11:58:13;14.07;;;6.90;;
31638;SDS011;18248;51.522;7.020;2024-01-30T12:01:12;16.70;;;7.30;;
31638;SDS011;18248;51.522;7.020;2024-01-30T12:04:10;14.27;;;7.15;;
31638;SDS011;18248;51.522;7.020;2024-01-30T12:07:09;19.02;;;7.40;;
31638;SDS011;18248;51.522;7.020;2024-01-30T12:10:08;15.73;;;6.65;;
31638;SDS011;18248;51.522;7.020;2024-01-30T12:13:07;18.80;;;7.15;;
31638;SDS011;18248;51.522;7.020;2024-01-30T12:16:06;16.40;;;6.88;;
31638;SDS011;18248;51.522;7.020;2024-01-30T12:19:05;10.43;;;5.80;;
31638;SDS011;18248;51.522;7.020;2024-01-30T12:22:03;12.95;;;6.55;;
31638;SDS011;18248;51.522;7.020;2024-01-30T12:25:02;14.38;;;6.85;;
31638;SDS011;18248;51.522;7.020;2024-01-30T12:28:02;18.08;;;6.90;;
31638;SDS011;18248;51.522;7.020;2024-01-30T12:31:01;17.75;;;6.47;;
31638;SDS011;18248;51.522;7.020;2024-01-30T12:34:01;23.88;;;7.35;;
31638;SDS011;18248;51.522;7.020;2024-01-30T12:36:59;16.92;;;7.18;;
31638;SDS011;18248;51.522;7.020;2024-01-30T12:39:58;23.83;;;6.80;;
31638;SDS011;18248;51.522;7.020;2024-01-30T12:42:57;18.17;;;7.30;;
31638;SDS011;18248;51.522;7.020;2024-01-30T12:45:55;16.77;;;6.88;;
31638;SDS011;18248;51.522;7.020;2024-01-30T12:48:54;22.63;;;8.00;;
31638;SDS011;18248;51.522;7.020;2024-01-30T12:51:52;18.05;;;7.47;;
31638;SDS011;18248;51.522;7.020;2024-01-30T12:54:51;22.10;;;7.50;;
31638;SDS011;18248;51.522;7.020;2024-01-30T12:57:50;22.25;;;8.27;;
31638;SDS011;18248;51.522;7.020;2024-01-30T13:00:48;16.63;;;6.72;;
31638;SDS011;18248;51.522;7.020;2024-01-30T13:03:47;17.65;;;7.10;;
31638;SDS011;18248;51.522;7.020;2024-01-30T13:06:45;19.58;;;7.82;;
31638;SDS011;18248;51.522;7.020;2024-01-30T13:09:44;19.15;;;7.13;;
31638;SDS011;18248;51.522;7.020;2024-01-30T13:12:43;17.33;;;7.93;;
31638;SDS011;18248;51.522;7.020;2024-01-30T13:15:41;21.65;;;7.90;;
31638;SDS011;18248;51.522;7.020;2024-01-30T13:18:40;16.55;;;7.57;;
31638;SDS011;18248;51.522;7.020;2024-01-30T13:21:39;18.30;;;8.15;;
31638;SDS011;18248;51.522;7.020;2024-01-30T13:24:38;18.50;;;6.72;;
31638;SDS011;18248;51.522;7.020;2024-01-30T13:27:36;18.38;;;8.27;;
31638;SDS011;18248;51.522;7.020;2024-01-30T13:30:35;18.58;;;7.55;;
31638;SDS011;18248;51.522;7.020;2024-01-30T13:33:34;18.88;;;7.55;;
31638;SDS011;18248;51.522;7.020;2024-01-30T13:36:32;17.70;;;8.65;;
31638;SDS011;18248;51.522;7.020;2024-01-30T13:39:31;23.23;;;8.13;;
31638;SDS011;18248;51.522;7.020;2024-01-30T13:42:30;20.05;;;8.32;;
31638;SDS011;18248;51.522;7.020;2024-01-30T13:45:28;20.92;;;7.68;;
31638;SDS011;18248;51.522;7.020;2024-01-30T13:48:27;22.80;;;8.07;;
31638;SDS011;18248;51.522;7.020;2024-01-30T13:51:26;23.65;;;8.25;;
31638;SDS011;18248;51.522;7.020;2024-01-30T13:54:24;19.08;;;7.93;;
31638;SDS011;18248;51.522;7.020;2024-01-30T13:57:23;20.60;;;8.07;;
31638;SDS011;18248;51.522;7.020;2024-01-30T14:00:22;17.38;;;7.28;;
31638;SDS011;18248;51.522;7.020;2024-01-30T14:03:21;14.30;;;7.50;;
31638;SDS011;18248;51.522;7.020;2024-01-30T14:06:19;15.93;;;7.72;;
31638;SDS011;18248;51.522;7.020;2024-01-30T14:09:18;11.75;;;7.03;;
31638;SDS011;18248;51.522;7.020;2024-01-30T14:12:16;17.63;;;8.32;;
31638;SDS011;18248;51.522;7.020;2024-01-30T14:15:15;22.30;;;8.77;;
31638;SDS011;18248;51.522;7.020;2024-01-30T14:18:16;19.83;;;9.18;;
31638;SDS011;18248;51.522;7.020;2024-01-30T14:21:14;17.95;;;7.30;;
31638;SDS011;18248;51.522;7.020;2024-01-30T14:24:13;20.88;;;8.32;;
31638;SDS011;18248;51.522;7.020;2024-01-30T14:27:12;22.35;;;9.07;;
31638;SDS011;18248;51.522;7.020;2024-01-30T14:30:10;17.70;;;8.73;;
31638;SDS011;18248;51.522;7.020;2024-01-30T14:33:09;20.73;;;8.30;;
31638;SDS011;18248;51.522;7.020;2024-01-30T14:36:08;24.17;;;8.43;;
31638;SDS011;18248;51.522;7.020;2024-01-30T14:39:07;15.75;;;7.90;;
31638;SDS011;18248;51.522;7.020;2024-01-30T14:42:06;27.17;;;9.27;;
31638;SDS011;18248;51.522;7.020;2024-01-30T14:45:05;16.15;;;8.10;;
31638;SDS011;18248;51.522;7.020;2024-01-30T14:48:05;21.05;;;8.30;;
31638;SDS011;18248;51.522;7.020;2024-01-30T14:51:04;16.20;;;8.57;;
31638;SDS011;18248;51.522;7.020;2024-01-30T14:54:02;14.70;;;7.15;;
31638;SDS011;18248;51.522;7.020;2024-01-30T14:57:01;13.73;;;7.28;;
31638;SDS011;18248;51.522;7.020;2024-01-30T15:00:00;17.42;;;7.32;;
31638;SDS011;18248;51.522;7.020;2024-01-30T15:02:59;15.40;;;7.15;;
31638;SDS011;18248;51.522;7.020;2024-01-30T15:05:57;14.13;;;7.03;;
31638;SDS011;18248;51.522;7.020;2024-01-30T15:08:56;16.90;;;8.02;;
31638;SDS011;18248;51.522;7.020;2024-01-30T15:11:54;16.20;;;6.05;;
31638;SDS011;18248;51.522;7.020;2024-01-30T15:14:53;15.50;;;5.88;;
31638;SDS011;18248;51.522;7.020;2024-01-30T15:17:51;13.02;;;4.93;;
31638;SDS011;18248;51.522;7.020;2024-01-30T15:20:50;16.95;;;5.07;;
31638;SDS011;18248;51.522;7.020;2024-01-30T15:23:48;14.10;;;5.78;;
31638;SDS011;18248;51.522;7.020;2024-01-30T15:26:47;13.38;;;4.93;;
31638;SDS011;18248;51.522;7.020;2024-01-30T15:29:45;12.02;;;4.82;;
31638;SDS011;18248;51.522;7.020;2024-01-30T15:32:44;11.82;;;4.10;;
31638;SDS011;18248;51.522;7.020;2024-01-30T15:35:43;9.45;;;4.03;;
31638;SDS011;18248;51.522;7.020;2024-01-30T15:38:41;10.95;;;4.43;;
31638;SDS011;18248;51.522;7.020;2024-01-30T15:41:40;14.27;;;3.70;;
31638;SDS011;18248;51.522;7.020;2024-01-30T15:44:39;10.68;;;2.75;;
31638;SDS011;18248;51.522;7.020;2024-01-30T15:47:37;9.25;;;3.25;;
31638;SDS011;18248;51.522;7.020;2024-01-30T15:50:36;6.22;;;2.88;;
31638;SDS011;18248;51.522;7.020;2024-01-30T15:53:35;14.43;;;3.15;;
31638;SDS011;18248;51.522;7.020;2024-01-30T15:56:34;10.27;;;3.17;;
31638;SDS011;18248;51.522;7.020;2024-01-30T15:59:32;8.40;;;2.80;;
31638;SDS011;18248;51.522;7.020;2024-01-30T16:02:31;8.13;;;2.92;;
31638;SDS011;18248;51.522;7.020;2024-01-30T16:05:29;8.68;;;3.22;;
31638;SDS011;18248;51.522;7.020;2024-01-30T16:08:28;11.63;;;3.50;;
31638;SDS011;18248;51.522;7.020;2024-01-30T16:11:26;11.82;;;4.60;;
31638;SDS011;18248;51.522;7.020;2024-01-30T16:14:25;11.80;;;5.10;;
31638;SDS011;18248;51.522;7.020;2024-01-30T16:17:23;24.52;;;9.10;;
31638;SDS011;18248;51.522;7.020;2024-01-30T16:20:22;17.25;;;5.43;;
31638;SDS011;18248;51.522;7.020;2024-01-30T16:23:21;12.68;;;2.83;;
31638;SDS011;18248;51.522;7.020;2024-01-30T16:26:19;24.23;;;7.50;;
31638;SDS011;18248;51.522;7.020;2024-01-30T16:29:19;11.70;;;4.18;;
31638;SDS011;18248;51.522;7.020;2024-01-30T16:32:18;8.85;;;3.13;;
31638;SDS011;18248;51.522;7.020;2024-01-30T16:35:17;11.65;;;3.33;;
31638;SDS011;18248;51.522;7.020;2024-01-30T16:38:15;10.90;;;2.80;;
31638;SDS011;18248;51.522;7.020;2024-01-30T16:41:14;11.30;;;3.58;;
31638;SDS011;18248;51.522;7.020;2024-01-30T16:44:12;9.70;;;2.83;;
31638;SDS011;18248;51.522;7.020;2024-01-30T16:47:11;9.48;;;2.15;;
31638;SDS011;18248;51.522;7.020;2024-01-30T16:50:10;10.18;;;2.22;;
31638;SDS011;18248;51.522;7.020;2024-01-30T16:53:09;7.25;;;1.80;;
31638;SDS011;18248;51.522;7.020;2024-01-30T16:56:07;7.88;;;1.60;;
31638;SDS011;18248;51.522;7.020;2024-01-30T16:59:06;6.35;;;1.63;;
31638;SDS011;18248;51.522;7.020;2024-01-30T17:02:04;7.47;;;1.30;;
31638;SDS011;18248;51.522;7.020;2024-01-30T17:05:03;6.85;;;1.50;;
31638;SDS011;18248;51.522;7.020;2024-01-30T17:08:02;6.28;;;2.35;;
31638;SDS011;18248;51.522;7.020;2024-01-30T17:11:01;4.60;;;1.60;;
31638;SDS011;18248;51.522;7.020;2024-01-30T17:14:00;5.72;;;1.45;;
31638;SDS011;18248;51.522;7.020;2024-01-30T17:16:58;6.10;;;1.50;;
31638;SDS011;18248;51.522;7.020;2024-01-30T17:19:58;5.85;;;1.50;;
31638;SDS011;18248;51.522;7.020;2024-01-30T17:22:56;5.75;;;1.60;;
31638;SDS011;18248;51.522;7.020;2024-01-30T17:25:55;10.40;;;2.00;;
31638;SDS011;18248;51.522;7.020;2024-01-30T17:28:53;6.22;;;1.70;;
31638;SDS011;18248;51.522;7.020;2024-01-30T17:31:53;6.78;;;2.22;;
31638;SDS011;18248;51.522;7.020;2024-01-30T17:34:51;10.05;;;2.85;;
31638;SDS011;18248;51.522;7.020;2024-01-30T17:37:50;11.02;;;4.15;;
31638;SDS011;18248;51.522;7.020;2024-01-30T17:40:48;20.00;;;7.65;;
31638;SDS011;18248;51.522;7.020;2024-01-30T17:43:49;23.73;;;8.57;;
31638;SDS011;18248;51.522;7.020;2024-01-30T17:46:47;19.15;;;6.57;;